sensor_id;sensor_type;location;lat;lon;timestamp;pressure;altitude;pressure_sealevel;temperature;humidity
48888;BME280;42598;53.802;-1.632;2023-03-05T00:01:04;101703.63;;;3.43;52.98
48888;BME280;42598;53.802;-1.632;2023-03-05T00:03:31;101703.96;;;3.23;53.74
48888;BME280;42598;53.802;-1.632;2023-03-05T00:05:59;101692.99;;;4.75;50.16
48888;BME280;42598;53.802;-1.632;2023-03-05T00:08:26;101698.63;;;2.75;53.97
48888;BME280;42598;53.802;-1.632;2023-03-05T00:10:55;101694.06;;;3.45;53.36
48888;BME280;42598;53.802;-1.632;2023-03-05T00:13:23;101690.58;;;2.90;54.03
48888;BME280;42598;53.802;-1.632;2023-03-05T00:15:51;101685.95;;;3.40;54.20
48888;BME280;42598;53.802;-1.632;2023-03-05T00:18:18;101681.71;;;2.99;54.15
48888;BME280;42598;53.802;-1.632;2023-03-05T00:20:45;101674.73;;;3.46;52.96
48888;BME280;42598;53.802;-1.632;2023-03-05T00:23:12;101672.14;;;4.65;51.31
48888;BME280;42598;53.802;-1.632;2023-03-05T00:25:40;101667.44;;;4.65;51.12
48888;BME280;42598;53.802;-1.632;2023-03-05T00:28:07;101663.57;;;5.04;49.26
48888;BME280;42598;53.802;-1.632;2023-03-05T00:30:35;101660.25;;;4.92;50.19
48888;BME280;42598;53.802;-1.632;2023-03-05T00:33:02;101657.78;;;4.11;50.85
48888;BME280;42598;53.802;-1.632;2023-03-05T00:35:30;101649.24;;;4.19;51.14
48888;BME280;42598;53.802;-1.632;2023-03-05T00:37:57;101642.30;;;4.24;50.97
48888;BME280;42598;53.802;-1.632;2023-03-05T00:40:23;101637.78;;;5.34;48.91
48888;BME280;42598;53.802;-1.632;2023-03-05T00:42:54;101639.87;;;3.60;52.73
48888;BME280;42598;53.802;-1.632;2023-03-05T00:45:21;101635.45;;;4.70;50.53
48888;BME280;42598;53.802;-1.632;2023-03-05T00:47:48;101630.20;;;4.74;50.11
48888;BME280;42598;53.802;-1.632;2023-03-05T00:50:15;101626.81;;;4.13;51.15
48888;BME280;42598;53.802;-1.632;2023-03-05T00:52:43;101623.94;;;4.77;50.68
48888;BME280;42598;53.802;-1.632;2023-03-05T00:55:10;101620.77;;;4.20;51.55
48888;BME280;42598;53.802;-1.632;2023-03-05T00:57:37;101620.70;;;4.74;50.37
48888;BME280;42598;53.802;-1.632;2023-03-05T01:00:06;101622.91;;;3.66;52.44
48888;BME280;42598;53.802;-1.632;2023-03-05T01:02:33;101624.02;;;4.24;52.51
48888;BME280;42598;53.802;-1.632;2023-03-05T01:05:00;101616.38;;;3.99;52.52
48888;BME280;42598;53.802;-1.632;2023-03-05T01:07:28;101612.94;;;4.26;51.38
48888;BME280;42598;53.802;-1.632;2023-03-05T01:09:55;101613.10;;;2.83;53.65
48888;BME280;42598;53.802;-1.632;2023-03-05T01:12:22;101611.26;;;3.46;53.67
48888;BME280;42598;53.802;-1.632;2023-03-05T01:14:49;101613.39;;;2.71;55.06
48888;BME280;42598;53.802;-1.632;2023-03-05T01:17:17;101610.26;;;2.93;55.27
48888;BME280;42598;53.802;-1.632;2023-03-05T01:19:44;101602.62;;;3.21;54.25
48888;BME280;42598;53.802;-1.632;2023-03-05T01:22:12;101596.58;;;4.02;53.09
48888;BME280;42598;53.802;-1.632;2023-03-05T01:24:39;101595.27;;;4.25;51.98
48888;BME280;42598;53.802;-1.632;2023-03-05T01:27:06;101589.16;;;3.35;53.79
48888;BME280;42598;53.802;-1.632;2023-03-05T01:29:33;101583.72;;;3.56;53.59
48888;BME280;42598;53.802;-1.632;2023-03-05T01:32:02;101577.81;;;3.37;53.78
48888;BME280;42598;53.802;-1.632;2023-03-05T01:34:29;101574.47;;;3.58;52.67
48888;BME280;42598;53.802;-1.632;2023-03-05T01:36:56;101574.15;;;3.41;54.18
48888;BME280;42598;53.802;-1.632;2023-03-05T01:39:23;101567.65;;;3.41;53.48
48888;BME280;42598;53.802;-1.632;2023-03-05T01:41:50;101566.95;;;3.09;54.23
48888;BME280;42598;53.802;-1.632;2023-03-05T01:44:22;101562.17;;;3.95;53.55
48888;BME280;42598;53.802;-1.632;2023-03-05T01:46:50;101562.24;;;3.36;54.92
48888;BME280;42598;53.802;-1.632;2023-03-05T01:49:21;101558.86;;;3.36;53.82
48888;BME280;42598;53.802;-1.632;2023-03-05T01:51:53;101558.02;;;3.29;54.55
48888;BME280;42598;53.802;-1.632;2023-03-05T01:54:29;101561.49;;;3.42;55.05
48888;BME280;42598;53.802;-1.632;2023-03-05T01:56:59;101562.38;;;2.57;57.07
48888;BME280;42598;53.802;-1.632;2023-03-05T01:59:28;101557.02;;;3.10;56.77
48888;BME280;42598;53.802;-1.632;2023-03-05T02:01:57;101559.51;;;3.09;55.42
48888;BME280;42598;53.802;-1.632;2023-03-05T02:04:29;101557.52;;;2.74;56.73
48888;BME280;42598;53.802;-1.632;2023-03-05T02:06:58;101551.10;;;2.85;55.70
48888;BME280;42598;53.802;-1.632;2023-03-05T02:09:26;101552.92;;;3.20;55.83
48888;BME280;42598;53.802;-1.632;2023-03-05T02:11:54;101550.27;;;2.78;55.86
48888;BME280;42598;53.802;-1.632;2023-03-05T02:14:21;101551.71;;;2.98;55.60
48888;BME280;42598;53.802;-1.632;2023-03-05T02:16:49;101547.14;;;2.54;56.68
48888;BME280;42598;53.802;-1.632;2023-03-05T02:19:16;101543.76;;;2.73;58.30
48888;BME280;42598;53.802;-1.632;2023-03-05T02:21:45;101534.23;;;2.86;57.37
48888;BME280;42598;53.802;-1.632;2023-03-05T02:24:16;101533.02;;;2.38;58.05
48888;BME280;42598;53.802;-1.632;2023-03-05T02:26:44;101528.60;;;2.47;57.74
48888;BME280;42598;53.802;-1.632;2023-03-05T02:29:16;101524.95;;;2.00;59.31
48888;BME280;42598;53.802;-1.632;2023-03-05T02:31:43;101514.43;;;3.07;55.95
48888;BME280;42598;53.802;-1.632;2023-03-05T02:34:10;101504.71;;;3.42;55.44
48888;BME280;42598;53.802;-1.632;2023-03-05T02:36:37;101501.79;;;3.00;55.54
48888;BME280;42598;53.802;-1.632;2023-03-05T02:39:04;101495.12;;;3.14;55.20
48888;BME280;42598;53.802;-1.632;2023-03-05T02:41:31;101487.78;;;3.60;54.04
48888;BME280;42598;53.802;-1.632;2023-03-05T02:43:59;101487.45;;;3.04;55.37
48888;BME280;42598;53.802;-1.632;2023-03-05T02:46:26;101482.52;;;2.27;57.93
48888;BME280;42598;53.802;-1.632;2023-03-05T02:48:55;101478.51;;;1.95;58.21
48888;BME280;42598;53.802;-1.632;2023-03-05T02:51:22;101475.74;;;2.03;59.13
48888;BME280;42598;53.802;-1.632;2023-03-05T02:53:49;101473.40;;;2.15;59.52
48888;BME280;42598;53.802;-1.632;2023-03-05T02:56:17;101470.17;;;2.40;58.02
48888;BME280;42598;53.802;-1.632;2023-03-05T02:58:45;101467.24;;;2.43;58.55
48888;BME280;42598;53.802;-1.632;2023-03-05T03:01:13;101461.77;;;2.72;57.71
48888;BME280;42598;53.802;-1.632;2023-03-05T03:03:40;101461.64;;;2.71;57.68
48888;BME280;42598;53.802;-1.632;2023-03-05T03:06:10;101461.24;;;3.32;56.95
48888;BME280;42598;53.802;-1.632;2023-03-05T03:08:37;101464.52;;;2.21;58.19
48888;BME280;42598;53.802;-1.632;2023-03-05T03:11:06;101453.72;;;3.08;57.20
48888;BME280;42598;53.802;-1.632;2023-03-05T03:13:34;101445.80;;;2.36;56.46
48888;BME280;42598;53.802;-1.632;2023-03-05T03:16:04;101438.73;;;4.07;53.95
48888;BME280;42598;53.802;-1.632;2023-03-05T03:18:33;101439.31;;;3.15;54.96
48888;BME280;42598;53.802;-1.632;2023-03-05T03:21:00;101431.77;;;4.03;53.46
48888;BME280;42598;53.802;-1.632;2023-03-05T03:23:28;101431.22;;;2.62;57.07
48888;BME280;42598;53.802;-1.632;2023-03-05T03:25:56;101432.09;;;2.12;57.73
48888;BME280;42598;53.802;-1.632;2023-03-05T03:28:24;101426.59;;;2.69;57.80
48888;BME280;42598;53.802;-1.632;2023-03-05T03:30:51;101425.83;;;2.14;59.20
48888;BME280;42598;53.802;-1.632;2023-03-05T03:33:18;101426.20;;;1.83;60.70
48888;BME280;42598;53.802;-1.632;2023-03-05T03:35:45;101422.38;;;2.05;59.60
48888;BME280;42598;53.802;-1.632;2023-03-05T03:38:13;101420.98;;;2.15;59.25
48888;BME280;42598;53.802;-1.632;2023-03-05T03:40:41;101416.33;;;2.82;57.79
48888;BME280;42598;53.802;-1.632;2023-03-05T03:43:08;101409.45;;;2.71;57.85
48888;BME280;42598;53.802;-1.632;2023-03-05T03:45:39;101404.50;;;2.92;56.19
48888;BME280;42598;53.802;-1.632;2023-03-05T03:48:07;101402.08;;;2.82;57.21
48888;BME280;42598;53.802;-1.632;2023-03-05T03:50:37;101398.43;;;3.62;55.33
48888;BME280;42598;53.802;-1.632;2023-03-05T03:53:04;101395.76;;;2.63;57.90
48888;BME280;42598;53.802;-1.632;2023-03-05T03:55:31;101388.83;;;2.83;58.31
48888;BME280;42598;53.802;-1.632;2023-03-05T03:57:59;101390.24;;;2.99;57.58
48888;BME280;42598;53.802;-1.632;2023-03-05T04:00:26;101391.42;;;3.04;57.72
48888;BME280;42598;53.802;-1.632;2023-03-05T04:02:54;101392.51;;;2.63;58.33
48888;BME280;42598;53.802;-1.632;2023-03-05T04:05:22;101390.18;;;2.75;58.41
48888;BME280;42598;53.802;-1.632;2023-03-05T04:07:49;101389.56;;;2.41;59.11
48888;BME280;42598;53.802;-1.632;2023-03-05T04:10:16;101384.32;;;2.83;58.89
48888;BME280;42598;53.802;-1.632;2023-03-05T04:12:44;101383.34;;;2.19;59.70
48888;BME280;42598;53.802;-1.632;2023-03-05T04:15:12;101385.01;;;2.60;59.11
48888;BME280;42598;53.802;-1.632;2023-03-05T04:17:39;101385.57;;;1.90;60.75
48888;BME280;42598;53.802;-1.632;2023-03-05T04:20:07;101383.40;;;1.34;63.19
48888;BME280;42598;53.802;-1.632;2023-03-05T04:22:34;101372.45;;;3.02;59.09
48888;BME280;42598;53.802;-1.632;2023-03-05T04:25:01;101367.98;;;2.15;61.00
48888;BME280;42598;53.802;-1.632;2023-03-05T04:27:29;101366.06;;;1.32;63.44
48888;BME280;42598;53.802;-1.632;2023-03-05T04:29:56;101357.82;;;1.45;63.40
48888;BME280;42598;53.802;-1.632;2023-03-05T04:32:24;101351.55;;;2.72;60.68
48888;BME280;42598;53.802;-1.632;2023-03-05T04:34:51;101346.51;;;2.17;61.77
48888;BME280;42598;53.802;-1.632;2023-03-05T04:37:18;101345.86;;;1.77;62.35
48888;BME280;42598;53.802;-1.632;2023-03-05T04:39:45;101349.11;;;1.59;63.14
48888;BME280;42598;53.802;-1.632;2023-03-05T04:42:12;101342.02;;;1.12;65.05
48888;BME280;42598;53.802;-1.632;2023-03-05T04:44:39;101340.62;;;1.62;63.39
48888;BME280;42598;53.802;-1.632;2023-03-05T04:47:06;101340.23;;;2.27;62.69
48888;BME280;42598;53.802;-1.632;2023-03-05T04:49:33;101334.94;;;2.58;62.48
48888;BME280;42598;53.802;-1.632;2023-03-05T04:52:00;101332.08;;;2.03;62.14
48888;BME280;42598;53.802;-1.632;2023-03-05T04:54:27;101325.20;;;1.53;63.87
48888;BME280;42598;53.802;-1.632;2023-03-05T04:56:54;101319.74;;;1.75;62.80
48888;BME280;42598;53.802;-1.632;2023-03-05T04:59:21;101315.34;;;1.87;63.61
48888;BME280;42598;53.802;-1.632;2023-03-05T05:01:48;101314.58;;;2.17;62.48
48888;BME280;42598;53.802;-1.632;2023-03-05T05:04:15;101308.12;;;2.96;60.19
48888;BME280;42598;53.802;-1.632;2023-03-05T05:06:42;101301.63;;;2.47;61.25
48888;BME280;42598;53.802;-1.632;2023-03-05T05:09:09;101299.46;;;3.38;58.49
48888;BME280;42598;53.802;-1.632;2023-03-05T05:11:37;101297.58;;;2.66;59.98
48888;BME280;42598;53.802;-1.632;2023-03-05T05:14:05;101295.90;;;1.95;61.87
48888;BME280;42598;53.802;-1.632;2023-03-05T05:16:33;101292.65;;;2.01;62.40
48888;BME280;42598;53.802;-1.632;2023-03-05T05:18:59;101284.48;;;2.28;61.17
48888;BME280;42598;53.802;-1.632;2023-03-05T05:21:26;101276.59;;;2.97;59.76
48888;BME280;42598;53.802;-1.632;2023-03-05T05:23:54;101272.22;;;2.57;60.23
48888;BME280;42598;53.802;-1.632;2023-03-05T05:26:21;101267.07;;;2.86;60.44
48888;BME280;42598;53.802;-1.632;2023-03-05T05:28:48;101265.75;;;2.22;60.97
48888;BME280;42598;53.802;-1.632;2023-03-05T05:31:16;101267.06;;;2.57;60.29
48888;BME280;42598;53.802;-1.632;2023-03-05T05:33:44;101264.62;;;2.48;59.94
48888;BME280;42598;53.802;-1.632;2023-03-05T05:36:14;101263.30;;;2.38;60.90
48888;BME280;42598;53.802;-1.632;2023-03-05T05:38:41;101259.53;;;3.06;59.21
48888;BME280;42598;53.802;-1.632;2023-03-05T05:41:10;101253.69;;;3.30;57.66
48888;BME280;42598;53.802;-1.632;2023-03-05T05:43:38;101254.41;;;2.21;60.06
48888;BME280;42598;53.802;-1.632;2023-03-05T05:46:07;101258.76;;;2.75;59.15
48888;BME280;42598;53.802;-1.632;2023-03-05T05:48:36;101261.39;;;2.86;58.19
48888;BME280;42598;53.802;-1.632;2023-03-05T05:51:05;101260.45;;;1.85;60.19
48888;BME280;42598;53.802;-1.632;2023-03-05T05:53:33;101253.36;;;2.60;59.48
48888;BME280;42598;53.802;-1.632;2023-03-05T05:56:03;101255.71;;;3.23;58.93
48888;BME280;42598;53.802;-1.632;2023-03-05T05:58:30;101247.48;;;3.42;56.87
48888;BME280;42598;53.802;-1.632;2023-03-05T06:00:57;101240.47;;;2.33;59.08
48888;BME280;42598;53.802;-1.632;2023-03-05T06:03:24;101238.18;;;2.45;59.94
48888;BME280;42598;53.802;-1.632;2023-03-05T06:05:51;101239.50;;;2.56;60.15
48888;BME280;42598;53.802;-1.632;2023-03-05T06:08:18;101238.05;;;2.78;58.34
48888;BME280;42598;53.802;-1.632;2023-03-05T06:10:44;101238.46;;;2.33;59.78
48888;BME280;42598;53.802;-1.632;2023-03-05T06:13:18;101235.18;;;2.57;59.06
48888;BME280;42598;53.802;-1.632;2023-03-05T06:15:55;101236.83;;;2.13;60.08
48888;BME280;42598;53.802;-1.632;2023-03-05T06:18:22;101233.62;;;2.63;59.88
48888;BME280;42598;53.802;-1.632;2023-03-05T06:20:54;101232.80;;;2.76;58.98
48888;BME280;42598;53.802;-1.632;2023-03-05T06:23:23;101231.13;;;2.90;58.66
48888;BME280;42598;53.802;-1.632;2023-03-05T06:25:51;101230.11;;;2.37;60.19
48888;BME280;42598;53.802;-1.632;2023-03-05T06:28:18;101234.06;;;3.31;57.99
48888;BME280;42598;53.802;-1.632;2023-03-05T06:30:46;101222.65;;;2.31;58.82
48888;BME280;42598;53.802;-1.632;2023-03-05T06:33:13;101216.67;;;3.40;57.42
48888;BME280;42598;53.802;-1.632;2023-03-05T06:35:40;101215.24;;;3.45;57.68
48888;BME280;42598;53.802;-1.632;2023-03-05T06:38:08;101217.07;;;2.63;58.66
48888;BME280;42598;53.802;-1.632;2023-03-05T06:40:37;101220.61;;;2.58;59.92
48888;BME280;42598;53.802;-1.632;2023-03-05T06:43:04;101218.75;;;2.66;59.89
48888;BME280;42598;53.802;-1.632;2023-03-05T06:45:31;101211.43;;;3.32;58.59
48888;BME280;42598;53.802;-1.632;2023-03-05T06:47:58;101206.10;;;2.55;59.98
48888;BME280;42598;53.802;-1.632;2023-03-05T06:50:25;101209.44;;;2.77;59.93
48888;BME280;42598;53.802;-1.632;2023-03-05T06:52:52;101209.63;;;2.68;60.05
48888;BME280;42598;53.802;-1.632;2023-03-05T06:55:19;101199.10;;;3.12;58.87
48888;BME280;42598;53.802;-1.632;2023-03-05T06:57:47;101193.31;;;3.88;56.44
48888;BME280;42598;53.802;-1.632;2023-03-05T07:00:14;101187.24;;;3.10;57.26
48888;BME280;42598;53.802;-1.632;2023-03-05T07:02:42;101180.45;;;4.24;55.75
48888;BME280;42598;53.802;-1.632;2023-03-05T07:05:09;101180.26;;;4.29;53.92
48888;BME280;42598;53.802;-1.632;2023-03-05T07:07:36;101172.87;;;5.69;51.43
48888;BME280;42598;53.802;-1.632;2023-03-05T07:10:04;101171.06;;;4.76;53.13
48888;BME280;42598;53.802;-1.632;2023-03-05T07:12:32;101167.54;;;4.55;53.38
48888;BME280;42598;53.802;-1.632;2023-03-05T07:14:58;101168.93;;;4.57;52.29
48888;BME280;42598;53.802;-1.632;2023-03-05T07:17:25;101168.42;;;4.26;53.41
48888;BME280;42598;53.802;-1.632;2023-03-05T07:19:53;101165.81;;;3.75;53.77
48888;BME280;42598;53.802;-1.632;2023-03-05T07:22:21;101167.69;;;2.41;56.56
48888;BME280;42598;53.802;-1.632;2023-03-05T07:24:48;101162.62;;;3.15;56.41
48888;BME280;42598;53.802;-1.632;2023-03-05T07:27:15;101162.56;;;3.12;56.58
48888;BME280;42598;53.802;-1.632;2023-03-05T07:29:42;101157.91;;;2.72;56.91
48888;BME280;42598;53.802;-1.632;2023-03-05T07:32:09;101158.69;;;3.25;56.07
48888;BME280;42598;53.802;-1.632;2023-03-05T07:34:36;101152.42;;;3.59;56.24
48888;BME280;42598;53.802;-1.632;2023-03-05T07:37:04;101149.21;;;3.73;55.35
48888;BME280;42598;53.802;-1.632;2023-03-05T07:39:31;101147.68;;;3.36;55.17
48888;BME280;42598;53.802;-1.632;2023-03-05T07:41:58;101148.99;;;3.55;54.82
48888;BME280;42598;53.802;-1.632;2023-03-05T07:44:25;101153.01;;;4.19;54.11
48888;BME280;42598;53.802;-1.632;2023-03-05T07:46:52;101149.64;;;4.91;51.93
48888;BME280;42598;53.802;-1.632;2023-03-05T07:49:19;101152.14;;;4.03;53.36
48888;BME280;42598;53.802;-1.632;2023-03-05T07:51:46;101147.06;;;3.50;54.44
48888;BME280;42598;53.802;-1.632;2023-03-05T07:54:14;101145.76;;;3.61;54.02
48888;BME280;42598;53.802;-1.632;2023-03-05T07:56:41;101136.17;;;3.45;54.60
48888;BME280;42598;53.802;-1.632;2023-03-05T07:59:11;101134.21;;;3.36;54.34
48888;BME280;42598;53.802;-1.632;2023-03-05T08:01:39;101136.09;;;2.58;56.35
48888;BME280;42598;53.802;-1.632;2023-03-05T08:04:07;101134.90;;;2.98;55.29
48888;BME280;42598;53.802;-1.632;2023-03-05T08:06:37;101118.45;;;2.97;54.77
48888;BME280;42598;53.802;-1.632;2023-03-05T08:09:04;101109.50;;;3.58;54.47
48888;BME280;42598;53.802;-1.632;2023-03-05T08:11:31;101109.10;;;3.67;53.81
48888;BME280;42598;53.802;-1.632;2023-03-05T08:13:57;101107.54;;;4.19;52.93
48888;BME280;42598;53.802;-1.632;2023-03-05T08:16:25;101111.77;;;2.95;54.86
48888;BME280;42598;53.802;-1.632;2023-03-05T08:18:54;101112.30;;;4.13;52.68
48888;BME280;42598;53.802;-1.632;2023-03-05T08:21:24;101104.25;;;3.25;55.23
48888;BME280;42598;53.802;-1.632;2023-03-05T08:23:52;101090.17;;;2.44;57.80
48888;BME280;42598;53.802;-1.632;2023-03-05T08:26:22;101089.39;;;1.71;60.72
48888;BME280;42598;53.802;-1.632;2023-03-05T08:28:49;101080.72;;;1.07;62.78
48888;BME280;42598;53.802;-1.632;2023-03-05T08:31:18;101073.47;;;1.93;62.81
48888;BME280;42598;53.802;-1.632;2023-03-05T08:33:46;101069.89;;;1.48;62.81
48888;BME280;42598;53.802;-1.632;2023-03-05T08:36:13;101064.97;;;1.52;63.47
48888;BME280;42598;53.802;-1.632;2023-03-05T08:38:40;101061.76;;;1.31;63.80
48888;BME280;42598;53.802;-1.632;2023-03-05T08:41:07;101066.10;;;1.82;62.76
48888;BME280;42598;53.802;-1.632;2023-03-05T08:43:34;101062.01;;;1.59;63.97
48888;BME280;42598;53.802;-1.632;2023-03-05T08:46:02;101063.07;;;1.23;65.37
48888;BME280;42598;53.802;-1.632;2023-03-05T08:48:29;101061.96;;;1.58;64.84
48888;BME280;42598;53.802;-1.632;2023-03-05T08:50:56;101064.45;;;1.87;63.73
48888;BME280;42598;53.802;-1.632;2023-03-05T08:53:23;101064.99;;;1.94;63.69
48888;BME280;42598;53.802;-1.632;2023-03-05T08:55:53;101061.18;;;2.24;63.07
48888;BME280;42598;53.802;-1.632;2023-03-05T08:58:21;101062.04;;;2.14;63.37
48888;BME280;42598;53.802;-1.632;2023-03-05T09:00:47;101062.44;;;2.47;62.77
48888;BME280;42598;53.802;-1.632;2023-03-05T09:03:15;101060.80;;;2.90;61.14
48888;BME280;42598;53.802;-1.632;2023-03-05T09:05:42;101060.45;;;2.21;62.21
48888;BME280;42598;53.802;-1.632;2023-03-05T09:08:10;101060.67;;;2.30;61.24
48888;BME280;42598;53.802;-1.632;2023-03-05T09:10:37;101058.54;;;1.93;62.54
48888;BME280;42598;53.802;-1.632;2023-03-05T09:13:06;101062.66;;;2.97;60.54
48888;BME280;42598;53.802;-1.632;2023-03-05T09:15:33;101053.97;;;2.20;62.16
48888;BME280;42598;53.802;-1.632;2023-03-05T09:18:00;101051.50;;;2.69;60.66
48888;BME280;42598;53.802;-1.632;2023-03-05T09:20:27;101048.55;;;3.08;59.38
48888;BME280;42598;53.802;-1.632;2023-03-05T09:22:54;101042.47;;;3.00;59.27
48888;BME280;42598;53.802;-1.632;2023-03-05T09:25:22;101036.39;;;2.96;59.80
48888;BME280;42598;53.802;-1.632;2023-03-05T09:27:49;101034.55;;;3.07;58.45
48888;BME280;42598;53.802;-1.632;2023-03-05T09:30:16;101033.42;;;3.62;56.54
48888;BME280;42598;53.802;-1.632;2023-03-05T09:32:43;101039.37;;;2.87;57.84
48888;BME280;42598;53.802;-1.632;2023-03-05T09:35:10;101036.63;;;3.02;58.61
48888;BME280;42598;53.802;-1.632;2023-03-05T09:37:38;101033.81;;;2.81;57.91
48888;BME280;42598;53.802;-1.632;2023-03-05T09:40:10;101027.30;;;3.36;57.42
48888;BME280;42598;53.802;-1.632;2023-03-05T09:42:48;101032.63;;;2.63;58.74
48888;BME280;42598;53.802;-1.632;2023-03-05T09:45:25;101026.31;;;2.57;59.15
48888;BME280;42598;53.802;-1.632;2023-03-05T09:47:58;101023.42;;;3.48;57.07
48888;BME280;42598;53.802;-1.632;2023-03-05T09:50:35;101016.12;;;3.64;56.18
48888;BME280;42598;53.802;-1.632;2023-03-05T09:53:11;101009.85;;;3.63;55.01
48888;BME280;42598;53.802;-1.632;2023-03-05T09:55:43;101004.28;;;4.14;53.08
48888;BME280;42598;53.802;-1.632;2023-03-05T09:58:15;100994.06;;;4.12;53.47
48888;BME280;42598;53.802;-1.632;2023-03-05T10:00:46;100994.41;;;3.54;54.54
48888;BME280;42598;53.802;-1.632;2023-03-05T10:03:18;100987.48;;;4.54;51.88
48888;BME280;42598;53.802;-1.632;2023-03-05T10:05:59;100985.90;;;3.40;53.83
48888;BME280;42598;53.802;-1.632;2023-03-05T10:08:40;100986.34;;;3.81;54.02
48888;BME280;42598;53.802;-1.632;2023-03-05T10:11:21;100982.32;;;3.81;54.40
48888;BME280;42598;53.802;-1.632;2023-03-05T10:13:50;100980.14;;;4.92;52.41
48888;BME280;42598;53.802;-1.632;2023-03-05T10:16:34;100973.05;;;4.77;52.29
48888;BME280;42598;53.802;-1.632;2023-03-05T10:19:09;100982.35;;;4.65;53.20
48888;BME280;42598;53.802;-1.632;2023-03-05T10:21:48;100983.41;;;4.77;52.32
48888;BME280;42598;53.802;-1.632;2023-03-05T10:24:21;100977.78;;;6.14;50.48
48888;BME280;42598;53.802;-1.632;2023-03-05T10:26:57;100975.59;;;6.39;49.43
48888;BME280;42598;53.802;-1.632;2023-03-05T10:29:48;100965.79;;;5.99;48.55
48888;BME280;42598;53.802;-1.632;2023-03-05T10:32:31;100967.04;;;5.77;48.93
48888;BME280;42598;53.802;-1.632;2023-03-05T10:35:11;100963.10;;;6.28;47.69
48888;BME280;42598;53.802;-1.632;2023-03-05T10:37:54;100950.28;;;7.77;44.97
48888;BME280;42598;53.802;-1.632;2023-03-05T10:40:31;100941.14;;;6.68;45.12
48888;BME280;42598;53.802;-1.632;2023-03-05T10:43:10;100929.23;;;9.39;41.91
48888;BME280;42598;53.802;-1.632;2023-03-05T10:45:43;100927.86;;;10.37;39.54
48888;BME280;42598;53.802;-1.632;2023-03-05T10:48:19;100927.74;;;9.74;39.85
48888;BME280;42598;53.802;-1.632;2023-03-05T10:50:56;100929.64;;;7.84;41.97
48888;BME280;42598;53.802;-1.632;2023-03-05T10:53:27;100924.96;;;8.39;41.59
48888;BME280;42598;53.802;-1.632;2023-03-05T10:55:55;100920.57;;;9.30;40.24
48888;BME280;42598;53.802;-1.632;2023-03-05T10:58:23;100920.35;;;9.06;39.20
48888;BME280;42598;53.802;-1.632;2023-03-05T11:01:00;100917.23;;;9.51;39.30
48888;BME280;42598;53.802;-1.632;2023-03-05T11:03:46;100915.50;;;9.22;39.41
48888;BME280;42598;53.802;-1.632;2023-03-05T11:06:14;100912.52;;;9.81;38.47
48888;BME280;42598;53.802;-1.632;2023-03-05T11:08:41;100911.95;;;7.73;42.01
48888;BME280;42598;53.802;-1.632;2023-03-05T11:11:14;100908.36;;;6.22;44.37
48888;BME280;42598;53.802;-1.632;2023-03-05T11:13:50;100906.48;;;6.44;44.99
48888;BME280;42598;53.802;-1.632;2023-03-05T11:16:21;100909.30;;;7.59;43.34
48888;BME280;42598;53.802;-1.632;2023-03-05T11:18:49;100904.06;;;8.23;42.55
48888;BME280;42598;53.802;-1.632;2023-03-05T11:21:20;100902.25;;;9.49;40.68
48888;BME280;42598;53.802;-1.632;2023-03-05T11:24:09;100898.68;;;8.47;40.54
48888;BME280;42598;53.802;-1.632;2023-03-05T11:26:37;100892.16;;;8.28;41.46
48888;BME280;42598;53.802;-1.632;2023-03-05T11:29:18;100886.90;;;9.38;39.68
48888;BME280;42598;53.802;-1.632;2023-03-05T11:31:46;100890.06;;;8.65;39.49
48888;BME280;42598;53.802;-1.632;2023-03-05T11:34:28;100891.87;;;7.71;42.05
48888;BME280;42598;53.802;-1.632;2023-03-05T11:37:01;100881.81;;;8.29;41.42
48888;BME280;42598;53.802;-1.632;2023-03-05T11:39:29;100873.22;;;8.89;40.18
48888;BME280;42598;53.802;-1.632;2023-03-05T11:41:58;100868.36;;;7.97;41.62
48888;BME280;42598;53.802;-1.632;2023-03-05T11:44:29;100863.36;;;7.85;41.10
48888;BME280;42598;53.802;-1.632;2023-03-05T11:47:01;100854.57;;;8.07;40.14
48888;BME280;42598;53.802;-1.632;2023-03-05T11:49:30;100849.63;;;9.08;39.48
48888;BME280;42598;53.802;-1.632;2023-03-05T11:52:03;100846.70;;;8.41;40.25
48888;BME280;42598;53.802;-1.632;2023-03-05T11:54:38;100841.93;;;9.66;39.30
48888;BME280;42598;53.802;-1.632;2023-03-05T11:57:09;100838.40;;;8.88;39.54
48888;BME280;42598;53.802;-1.632;2023-03-05T11:59:38;100829.74;;;9.44;38.50
48888;BME280;42598;53.802;-1.632;2023-03-05T12:02:16;100831.08;;;8.42;39.47
48888;BME280;42598;53.802;-1.632;2023-03-05T12:04:45;100821.96;;;10.13;37.37
48888;BME280;42598;53.802;-1.632;2023-03-05T12:07:16;100822.55;;;10.69;36.78
48888;BME280;42598;53.802;-1.632;2023-03-05T12:09:46;100821.70;;;9.35;37.62
48888;BME280;42598;53.802;-1.632;2023-03-05T12:12:29;100818.44;;;10.40;36.90
48888;BME280;42598;53.802;-1.632;2023-03-05T12:15:07;100810.99;;;9.68;37.15
48888;BME280;42598;53.802;-1.632;2023-03-05T12:17:39;100812.10;;;8.88;38.67
48888;BME280;42598;53.802;-1.632;2023-03-05T12:20:15;100809.25;;;7.46;40.94
48888;BME280;42598;53.802;-1.632;2023-03-05T12:22:45;100800.42;;;7.42;40.14
48888;BME280;42598;53.802;-1.632;2023-03-05T12:25:24;100803.90;;;6.26;42.70
48888;BME280;42598;53.802;-1.632;2023-03-05T12:27:51;100800.22;;;6.69;42.80
48888;BME280;42598;53.802;-1.632;2023-03-05T12:32:54;100789.21;;;8.21;42.13
48888;BME280;42598;53.802;-1.632;2023-03-05T12:35:24;100785.04;;;8.13;40.43
48888;BME280;42598;53.802;-1.632;2023-03-05T12:38:03;100780.56;;;7.83;41.44
48888;BME280;42598;53.802;-1.632;2023-03-05T12:40:31;100769.83;;;7.34;41.65
48888;BME280;42598;53.802;-1.632;2023-03-05T12:42:59;100764.18;;;7.39;40.48
48888;BME280;42598;53.802;-1.632;2023-03-05T12:45:31;100762.90;;;8.39;40.30
48888;BME280;42598;53.802;-1.632;2023-03-05T12:49:27;100759.68;;;8.20;40.26
48888;BME280;42598;53.802;-1.632;2023-03-05T12:51:56;100755.39;;;8.27;39.92
48888;BME280;42598;53.802;-1.632;2023-03-05T12:54:29;100750.98;;;8.43;39.50
48888;BME280;42598;53.802;-1.632;2023-03-05T12:56:59;100746.81;;;8.64;39.19
48888;BME280;42598;53.802;-1.632;2023-03-05T12:59:37;100743.80;;;8.83;38.93
48888;BME280;42598;53.802;-1.632;2023-03-05T13:02:17;100737.48;;;9.32;38.00
48888;BME280;42598;53.802;-1.632;2023-03-05T13:04:46;100735.55;;;9.65;37.41